sensor_id;sensor_type;location;lat;lon;timestamp;temperature;humidity
5899;DHT22;2975;50.956;6.962;2023-11-21T00:02:20;9.10;99.90
5899;DHT22;2975;50.956;6.962;2023-11-21T00:04:47;9.00;99.90
5899;DHT22;2975;50.956;6.962;2023-11-21T00:07:13;9.10;99.90
5899;DHT22;2975;50.956;6.962;2023-11-21T00:09:38;9.10;99.90
5899;DHT22;2975;50.956;6.962;2023-11-21T00:12:04;9.20;99.90
5899;DHT22;2975;50.956;6.962;2023-11-21T00:14:30;9.20;99.90
5899;DHT22;2975;50.956;6.962;2023-11-21T00:16:55;9.30;99.90
5899;DHT22;2975;50.956;6.962;2023-11-21T00:19:21;9.30;99.90
5899;DHT22;2975;50.956;6.962;2023-11-21T00:21:46;9.30;99.90
5899;DHT22;2975;50.956;6.962;2023-11-21T00:24:12;9.30;99.90
5899;DHT22;2975;50.956;6.962;2023-11-21T00:26:39;9.30;99.90
5899;DHT22;2975;50.956;6.962;2023-11-21T00:29:05;9.30;99.90
5899;DHT22;2975;50.956;6.962;2023-11-21T00:31:36;9.40;99.90
5899;DHT22;2975;50.956;6.962;2023-11-21T00:34:04;9.30;99.90
5899;DHT22;2975;50.956;6.962;2023-11-21T00:36:33;9.40;99.90
5899;DHT22;2975;50.956;6.962;2023-11-21T00:38:58;9.30;99.90
5899;DHT22;2975;50.956;6.962;2023-11-21T00:41:25;9.30;99.90
5899;DHT22;2975;50.956;6.962;2023-11-21T00:43:53;9.20;99.90
5899;DHT22;2975;50.956;6.962;2023-11-21T00:46:19;9.30;99.90
5899;DHT22;2975;50.956;6.962;2023-11-21T00:48:44;9.10;99.90
5899;DHT22;2975;50.956;6.962;2023-11-21T00:51:10;9.30;99.90
5899;DHT22;2975;50.956;6.962;2023-11-21T00:53:35;9.20;99.90
5899;DHT22;2975;50.956;6.962;2023-11-21T00:56:01;9.40;99.90
5899;DHT22;2975;50.956;6.962;2023-11-21T00:58:28;9.40;99.90
5899;DHT22;2975;50.956;6.962;2023-11-21T01:00:53;9.30;99.90
5899;DHT22;2975;50.956;6.962;2023-11-21T01:03:19;9.20;99.90
5899;DHT22;2975;50.956;6.962;2023-11-21T01:05:45;9.00;99.90
5899;DHT22;2975;50.956;6.962;2023-11-21T01:08:11;8.70;99.90
5899;DHT22;2975;50.956;6.962;2023-11-21T01:10:37;8.60;99.90
5899;DHT22;2975;50.956;6.962;2023-11-21T01:13:03;8.50;99.90
5899;DHT22;2975;50.956;6.962;2023-11-21T01:15:33;8.50;99.90
5899;DHT22;2975;50.956;6.962;2023-11-21T01:17:59;8.50;99.90
5899;DHT22;2975;50.956;6.962;2023-11-21T01:20:25;8.70;99.90
5899;DHT22;2975;50.956;6.962;2023-11-21T01:22:51;8.60;99.90
5899;DHT22;2975;50.956;6.962;2023-11-21T01:25:17;8.80;99.90
5899;DHT22;2975;50.956;6.962;2023-11-21T01:27:43;8.80;99.90
5899;DHT22;2975;50.956;6.962;2023-11-21T01:30:09;8.80;99.90
5899;DHT22;2975;50.956;6.962;2023-11-21T01:32:38;9.00;99.90
5899;DHT22;2975;50.956;6.962;2023-11-21T01:35:05;8.80;99.90
5899;DHT22;2975;50.956;6.962;2023-11-21T01:37:31;8.80;99.90
5899;DHT22;2975;50.956;6.962;2023-11-21T01:39:58;8.80;99.90
5899;DHT22;2975;50.956;6.962;2023-11-21T01:42:24;9.00;99.90
5899;DHT22;2975;50.956;6.962;2023-11-21T01:44:50;9.10;99.90
5899;DHT22;2975;50.956;6.962;2023-11-21T01:47:16;8.90;99.90
5899;DHT22;2975;50.956;6.962;2023-11-21T01:49:44;9.00;99.90
5899;DHT22;2975;50.956;6.962;2023-11-21T01:52:10;8.80;99.90
5899;DHT22;2975;50.956;6.962;2023-11-21T01:54:37;8.70;99.90
5899;DHT22;2975;50.956;6.962;2023-11-21T01:57:04;9.10;99.90
5899;DHT22;2975;50.956;6.962;2023-11-21T01:59:36;8.80;99.90
5899;DHT22;2975;50.956;6.962;2023-11-21T02:02:06;8.70;99.90
5899;DHT22;2975;50.956;6.962;2023-11-21T02:04:35;8.70;99.90
5899;DHT22;2975;50.956;6.962;2023-11-21T02:07:04;8.70;99.90
5899;DHT22;2975;50.956;6.962;2023-11-21T02:09:31;8.50;99.90
5899;DHT22;2975;50.956;6.962;2023-11-21T02:11:58;8.50;99.90
5899;DHT22;2975;50.956;6.962;2023-11-21T02:14:28;8.60;99.90
5899;DHT22;2975;50.956;6.962;2023-11-21T02:16:54;8.60;99.90
5899;DHT22;2975;50.956;6.962;2023-11-21T02:19:21;8.50;99.90
5899;DHT22;2975;50.956;6.962;2023-11-21T02:21:56;8.30;99.90
5899;DHT22;2975;50.956;6.962;2023-11-21T02:24:23;8.20;99.90
5899;DHT22;2975;50.956;6.962;2023-11-21T02:26:50;8.40;99.90
5899;DHT22;2975;50.956;6.962;2023-11-21T02:29:21;8.60;99.90
5899;DHT22;2975;50.956;6.962;2023-11-21T02:31:50;8.70;99.90
5899;DHT22;2975;50.956;6.962;2023-11-21T02:34:17;8.40;99.90
5899;DHT22;2975;50.956;6.962;2023-11-21T02:36:46;8.40;99.90
5899;DHT22;2975;50.956;6.962;2023-11-21T02:39:15;8.80;99.90
5899;DHT22;2975;50.956;6.962;2023-11-21T02:41:40;8.80;99.90
5899;DHT22;2975;50.956;6.962;2023-11-21T02:44:06;8.80;99.90
5899;DHT22;2975;50.956;6.962;2023-11-21T02:46:33;8.90;99.90
5899;DHT22;2975;50.956;6.962;2023-11-21T02:49:03;9.10;99.90
5899;DHT22;2975;50.956;6.962;2023-11-21T02:51:29;9.00;99.90
5899;DHT22;2975;50.956;6.962;2023-11-21T02:53:55;8.90;99.90
5899;DHT22;2975;50.956;6.962;2023-11-21T02:56:25;9.00;99.90
5899;DHT22;2975;50.956;6.962;2023-11-21T02:58:51;9.00;99.90
5899;DHT22;2975;50.956;6.962;2023-11-21T03:01:16;9.10;99.90
5899;DHT22;2975;50.956;6.962;2023-11-21T03:03:42;9.20;99.90
5899;DHT22;2975;50.956;6.962;2023-11-21T03:06:08;9.30;99.90
5899;DHT22;2975;50.956;6.962;2023-11-21T03:08:34;9.40;99.90
5899;DHT22;2975;50.956;6.962;2023-11-21T03:11:00;9.00;99.90
5899;DHT22;2975;50.956;6.962;2023-11-21T03:13:25;9.50;99.90
5899;DHT22;2975;50.956;6.962;2023-11-21T03:15:51;9.20;99.90
5899;DHT22;2975;50.956;6.962;2023-11-21T03:18:16;9.20;99.90
5899;DHT22;2975;50.956;6.962;2023-11-21T03:20:43;9.30;99.90
5899;DHT22;2975;50.956;6.962;2023-11-21T03:23:11;9.20;99.90
5899;DHT22;2975;50.956;6.962;2023-11-21T03:25:37;9.30;99.90
5899;DHT22;2975;50.956;6.962;2023-11-21T03:28:03;9.10;99.90
5899;DHT22;2975;50.956;6.962;2023-11-21T03:30:28;9.20;99.90
5899;DHT22;2975;50.956;6.962;2023-11-21T03:32:55;9.20;99.90
5899;DHT22;2975;50.956;6.962;2023-11-21T03:35:21;9.20;99.90
5899;DHT22;2975;50.956;6.962;2023-11-21T03:37:47;9.00;99.90
5899;DHT22;2975;50.956;6.962;2023-11-21T03:40:13;9.10;99.90
5899;DHT22;2975;50.956;6.962;2023-11-21T03:42:39;9.00;99.90
5899;DHT22;2975;50.956;6.962;2023-11-21T03:45:05;9.10;99.90
5899;DHT22;2975;50.956;6.962;2023-11-21T03:47:31;9.10;99.90
5899;DHT22;2975;50.956;6.962;2023-11-21T03:49:57;9.00;99.90
5899;DHT22;2975;50.956;6.962;2023-11-21T03:52:24;9.00;99.90
5899;DHT22;2975;50.956;6.962;2023-11-21T03:54:50;9.00;99.90
5899;DHT22;2975;50.956;6.962;2023-11-21T03:57:15;9.10;99.90
5899;DHT22;2975;50.956;6.962;2023-11-21T03:59:41;8.90;99.90
5899;DHT22;2975;50.956;6.962;2023-11-21T04:02:07;8.90;99.90
5899;DHT22;2975;50.956;6.962;2023-11-21T04:04:33;8.90;99.90
5899;DHT22;2975;50.956;6.962;2023-11-21T04:06:59;9.00;99.90
5899;DHT22;2975;50.956;6.962;2023-11-21T04:09:25;8.90;99.90
5899;DHT22;2975;50.956;6.962;2023-11-21T04:11:53;8.80;99.90
5899;DHT22;2975;50.956;6.962;2023-11-21T04:14:19;8.70;99.90
5899;DHT22;2975;50.956;6.962;2023-11-21T04:16:45;9.20;99.90
5899;DHT22;2975;50.956;6.962;2023-11-21T04:19:11;8.80;99.90
5899;DHT22;2975;50.956;6.962;2023-11-21T04:21:37;9.00;99.90
5899;DHT22;2975;50.956;6.962;2023-11-21T04:24:03;8.80;99.90
5899;DHT22;2975;50.956;6.962;2023-11-21T04:26:28;8.90;99.90
5899;DHT22;2975;50.956;6.962;2023-11-21T04:28:54;9.00;99.90
5899;DHT22;2975;50.956;6.962;2023-11-21T04:31:19;9.00;99.90
5899;DHT22;2975;50.956;6.962;2023-11-21T04:33:45;9.00;99.90
5899;DHT22;2975;50.956;6.962;2023-11-21T04:36:10;8.80;99.90
5899;DHT22;2975;50.956;6.962;2023-11-21T04:38:36;8.90;99.90
5899;DHT22;2975;50.956;6.962;2023-11-21T04:41:01;8.80;99.90
5899;DHT22;2975;50.956;6.962;2023-11-21T04:43:27;8.90;99.90
5899;DHT22;2975;50.956;6.962;2023-11-21T04:45:54;8.80;99.90
5899;DHT22;2975;50.956;6.962;2023-11-21T04:48:20;8.90;99.90
5899;DHT22;2975;50.956;6.962;2023-11-21T04:50:45;8.80;99.90
5899;DHT22;2975;50.956;6.962;2023-11-21T04:53:11;8.80;99.90
5899;DHT22;2975;50.956;6.962;2023-11-21T04:55:42;8.80;99.90
5899;DHT22;2975;50.956;6.962;2023-11-21T04:58:08;8.60;99.90
5899;DHT22;2975;50.956;6.962;2023-11-21T05:00:34;8.70;99.90
5899;DHT22;2975;50.956;6.962;2023-11-21T05:02:59;8.70;99.90
5899;DHT22;2975;50.956;6.962;2023-11-21T05:05:27;8.80;99.90
5899;DHT22;2975;50.956;6.962;2023-11-21T05:07:52;8.50;99.90
5899;DHT22;2975;50.956;6.962;2023-11-21T05:10:19;8.60;99.90
5899;DHT22;2975;50.956;6.962;2023-11-21T05:12:45;8.70;99.90
5899;DHT22;2975;50.956;6.962;2023-11-21T05:15:14;8.60;99.90
5899;DHT22;2975;50.956;6.962;2023-11-21T05:17:40;8.50;99.90
5899;DHT22;2975;50.956;6.962;2023-11-21T05:20:15;8.40;99.90
5899;DHT22;2975;50.956;6.962;2023-11-21T05:22:45;8.80;99.90
5899;DHT22;2975;50.956;6.962;2023-11-21T05:25:11;8.60;99.90
5899;DHT22;2975;50.956;6.962;2023-11-21T05:27:37;8.60;99.90
5899;DHT22;2975;50.956;6.962;2023-11-21T05:30:04;8.60;99.90
5899;DHT22;2975;50.956;6.962;2023-11-21T05:32:37;8.70;99.90
5899;DHT22;2975;50.956;6.962;2023-11-21T05:35:03;8.80;99.90
5899;DHT22;2975;50.956;6.962;2023-11-21T05:37:29;8.70;99.90
5899;DHT22;2975;50.956;6.962;2023-11-21T05:39:55;8.70;99.90
5899;DHT22;2975;50.956;6.962;2023-11-21T05:42:22;8.90;99.90
5899;DHT22;2975;50.956;6.962;2023-11-21T05:44:48;8.80;99.90
5899;DHT22;2975;50.956;6.962;2023-11-21T05:47:14;8.90;99.90
5899;DHT22;2975;50.956;6.962;2023-11-21T05:49:40;8.70;99.90
5899;DHT22;2975;50.956;6.962;2023-11-21T05:52:05;8.70;99.90
5899;DHT22;2975;50.956;6.962;2023-11-21T05:54:32;8.60;99.90
5899;DHT22;2975;50.956;6.962;2023-11-21T05:56:57;8.80;99.90
5899;DHT22;2975;50.956;6.962;2023-11-21T05:59:23;8.70;99.90
5899;DHT22;2975;50.956;6.962;2023-11-21T06:01:48;8.80;99.90
5899;DHT22;2975;50.956;6.962;2023-11-21T06:04:14;8.70;99.90
5899;DHT22;2975;50.956;6.962;2023-11-21T06:06:40;8.70;99.90
5899;DHT22;2975;50.956;6.962;2023-11-21T06:09:05;8.80;99.90
5899;DHT22;2975;50.956;6.962;2023-11-21T06:11:34;8.70;99.90
5899;DHT22;2975;50.956;6.962;2023-11-21T06:13:59;8.70;99.90
5899;DHT22;2975;50.956;6.962;2023-11-21T06:16:25;8.70;99.90
5899;DHT22;2975;50.956;6.962;2023-11-21T06:18:51;8.80;99.90
5899;DHT22;2975;50.956;6.962;2023-11-21T06:21:16;8.80;99.90
5899;DHT22;2975;50.956;6.962;2023-11-21T06:23:43;8.70;99.90
5899;DHT22;2975;50.956;6.962;2023-11-21T06:26:08;8.90;99.90
5899;DHT22;2975;50.956;6.962;2023-11-21T06:28:35;8.70;99.90
5899;DHT22;2975;50.956;6.962;2023-11-21T06:31:01;8.90;99.90
5899;DHT22;2975;50.956;6.962;2023-11-21T06:33:31;8.80;99.90
5899;DHT22;2975;50.956;6.962;2023-11-21T06:35:57;8.80;99.90
5899;DHT22;2975;50.956;6.962;2023-11-21T06:38:22;8.80;99.90
5899;DHT22;2975;50.956;6.962;2023-11-21T06:40:48;8.80;99.90
5899;DHT22;2975;50.956;6.962;2023-11-21T06:43:14;8.80;99.90
5899;DHT22;2975;50.956;6.962;2023-11-21T06:45:41;8.50;99.90
5899;DHT22;2975;50.956;6.962;2023-11-21T06:48:06;8.90;99.90
5899;DHT22;2975;50.956;6.962;2023-11-21T06:50:32;8.80;99.90
5899;DHT22;2975;50.956;6.962;2023-11-21T06:52:57;9.00;99.90
5899;DHT22;2975;50.956;6.962;2023-11-21T06:55:23;8.80;99.90
5899;DHT22;2975;50.956;6.962;2023-11-21T06:57:49;9.20;99.90
5899;DHT22;2975;50.956;6.962;2023-11-21T07:00:16;8.70;99.90
5899;DHT22;2975;50.956;6.962;2023-11-21T07:02:43;8.80;99.90
5899;DHT22;2975;50.956;6.962;2023-11-21T07:05:10;8.90;99.90
5899;DHT22;2975;50.956;6.962;2023-11-21T07:07:36;8.80;99.90
5899;DHT22;2975;50.956;6.962;2023-11-21T07:10:03;8.90;99.90
5899;DHT22;2975;50.956;6.962;2023-11-21T07:12:30;8.70;99.90
5899;DHT22;2975;50.956;6.962;2023-11-21T07:14:56;8.80;99.90
5899;DHT22;2975;50.956;6.962;2023-11-21T07:17:22;8.80;99.90
5899;DHT22;2975;50.956;6.962;2023-11-21T07:19:48;8.80;99.90
5899;DHT22;2975;50.956;6.962;2023-11-21T07:22:15;8.90;99.90
5899;DHT22;2975;50.956;6.962;2023-11-21T07:24:48;8.70;99.90
5899;DHT22;2975;50.956;6.962;2023-11-21T07:27:15;9.00;99.90
5899;DHT22;2975;50.956;6.962;2023-11-21T07:29:40;9.00;99.90
5899;DHT22;2975;50.956;6.962;2023-11-21T07:32:06;8.80;99.90
5899;DHT22;2975;50.956;6.962;2023-11-21T07:34:31;8.90;99.90
5899;DHT22;2975;50.956;6.962;2023-11-21T07:36:57;9.10;99.90
5899;DHT22;2975;50.956;6.962;2023-11-21T07:39:22;9.20;99.90
5899;DHT22;2975;50.956;6.962;2023-11-21T07:41:48;9.20;99.90
5899;DHT22;2975;50.956;6.962;2023-11-21T07:44:16;9.30;99.90
5899;DHT22;2975;50.956;6.962;2023-11-21T07:46:42;9.40;99.90
5899;DHT22;2975;50.956;6.962;2023-11-21T07:49:08;9.50;99.90
5899;DHT22;2975;50.956;6.962;2023-11-21T07:51:34;9.50;99.90
5899;DHT22;2975;50.956;6.962;2023-11-21T07:53:59;9.70;99.90
5899;DHT22;2975;50.956;6.962;2023-11-21T07:56:26;9.60;99.90
5899;DHT22;2975;50.956;6.962;2023-11-21T07:58:51;9.70;99.90
5899;DHT22;2975;50.956;6.962;2023-11-21T08:01:17;9.70;99.90
5899;DHT22;2975;50.956;6.962;2023-11-21T08:03:43;9.70;99.90
5899;DHT22;2975;50.956;6.962;2023-11-21T08:06:09;9.70;99.90
5899;DHT22;2975;50.956;6.962;2023-11-21T08:08:35;9.80;99.90
5899;DHT22;2975;50.956;6.962;2023-11-21T08:11:00;9.90;99.90
5899;DHT22;2975;50.956;6.962;2023-11-21T08:13:28;10.00;99.90
5899;DHT22;2975;50.956;6.962;2023-11-21T08:15:54;10.10;99.90
5899;DHT22;2975;50.956;6.962;2023-11-21T08:18:21;10.10;99.90
5899;DHT22;2975;50.956;6.962;2023-11-21T08:20:46;10.20;99.90
5899;DHT22;2975;50.956;6.962;2023-11-21T08:23:15;10.20;99.90
5899;DHT22;2975;50.956;6.962;2023-11-21T08:25:44;10.20;99.90
5899;DHT22;2975;50.956;6.962;2023-11-21T08:28:10;10.20;99.90
5899;DHT22;2975;50.956;6.962;2023-11-21T08:30:36;10.20;99.90
5899;DHT22;2975;50.956;6.962;2023-11-21T08:33:02;10.10;99.90
5899;DHT22;2975;50.956;6.962;2023-11-21T08:35:29;10.30;99.90
5899;DHT22;2975;50.956;6.962;2023-11-21T08:37:55;10.20;99.90
5899;DHT22;2975;50.956;6.962;2023-11-21T08:40:21;10.30;99.90
5899;DHT22;2975;50.956;6.962;2023-11-21T08:42:47;10.30;99.90
5899;DHT22;2975;50.956;6.962;2023-11-21T08:45:16;10.20;99.90
5899;DHT22;2975;50.956;6.962;2023-11-21T08:47:43;10.10;99.90
5899;DHT22;2975;50.956;6.962;2023-11-21T08:50:10;10.10;99.90
5899;DHT22;2975;50.956;6.962;2023-11-21T08:52:40;10.10;99.90
5899;DHT22;2975;50.956;6.962;2023-11-21T08:55:07;10.00;99.90
5899;DHT22;2975;50.956;6.962;2023-11-21T08:57:36;10.00;99.90
5899;DHT22;2975;50.956;6.962;2023-11-21T09:00:06;10.00;99.90
5899;DHT22;2975;50.956;6.962;2023-11-21T09:02:35;10.10;99.90
5899;DHT22;2975;50.956;6.962;2023-11-21T09:05:03;10.20;99.90
5899;DHT22;2975;50.956;6.962;2023-11-21T09:07:29;10.10;99.90
5899;DHT22;2975;50.956;6.962;2023-11-21T09:09:55;10.20;99.90
5899;DHT22;2975;50.956;6.962;2023-11-21T09:12:20;10.20;99.90
5899;DHT22;2975;50.956;6.962;2023-11-21T09:14:47;10.40;99.90
5899;DHT22;2975;50.956;6.962;2023-11-21T09:17:13;10.60;99.90
5899;DHT22;2975;50.956;6.962;2023-11-21T09:19:40;10.70;99.90
5899;DHT22;2975;50.956;6.962;2023-11-21T09:22:06;10.70;99.90
5899;DHT22;2975;50.956;6.962;2023-11-21T09:24:32;10.70;99.90
5899;DHT22;2975;50.956;6.962;2023-11-21T09:26:58;10.80;99.90
5899;DHT22;2975;50.956;6.962;2023-11-21T09:29:28;10.90;99.90
5899;DHT22;2975;50.956;6.962;2023-11-21T09:31:54;11.00;99.90
5899;DHT22;2975;50.956;6.962;2023-11-21T09:34:21;10.80;99.90
5899;DHT22;2975;50.956;6.962;2023-11-21T09:36:47;10.70;99.90
5899;DHT22;2975;50.956;6.962;2023-11-21T09:39:13;10.70;99.90
5899;DHT22;2975;50.956;6.962;2023-11-21T09:41:50;10.70;99.90
5899;DHT22;2975;50.956;6.962;2023-11-21T09:44:18;10.70;99.90
5899;DHT22;2975;50.956;6.962;2023-11-21T09:46:48;10.60;99.90
5899;DHT22;2975;50.956;6.962;2023-11-21T09:49:18;10.60;99.90
5899;DHT22;2975;50.956;6.962;2023-11-21T09:51:47;10.60;99.90
5899;DHT22;2975;50.956;6.962;2023-11-21T09:54:15;10.60;99.90
5899;DHT22;2975;50.956;6.962;2023-11-21T09:56:43;10.60;99.90
5899;DHT22;2975;50.956;6.962;2023-11-21T09:59:14;10.60;99.90
5899;DHT22;2975;50.956;6.962;2023-11-21T10:01:41;10.70;99.90
5899;DHT22;2975;50.956;6.962;2023-11-21T10:04:08;10.60;99.90
5899;DHT22;2975;50.956;6.962;2023-11-21T10:06:40;10.60;99.90
5899;DHT22;2975;50.956;6.962;2023-11-21T10:09:12;10.60;99.90
5899;DHT22;2975;50.956;6.962;2023-11-21T10:11:42;10.60;99.90
5899;DHT22;2975;50.956;6.962;2023-11-21T10:14:10;10.70;99.90
5899;DHT22;2975;50.956;6.962;2023-11-21T10:16:38;10.70;99.90
5899;DHT22;2975;50.956;6.962;2023-11-21T10:19:05;10.70;99.90
5899;DHT22;2975;50.956;6.962;2023-11-21T10:21:32;10.70;99.90
5899;DHT22;2975;50.956;6.962;2023-11-21T10:23:59;10.70;99.90
5899;DHT22;2975;50.956;6.962;2023-11-21T10:26:28;10.80;99.90
5899;DHT22;2975;50.956;6.962;2023-11-21T10:28:58;10.70;99.90
5899;DHT22;2975;50.956;6.962;2023-11-21T10:31:27;10.70;99.90
5899;DHT22;2975;50.956;6.962;2023-11-21T10:33:53;10.70;99.90
5899;DHT22;2975;50.956;6.962;2023-11-21T10:36:28;10.70;99.90
5899;DHT22;2975;50.956;6.962;2023-11-21T10:38:54;10.80;99.90
5899;DHT22;2975;50.956;6.962;2023-11-21T10:41:20;10.80;99.90
5899;DHT22;2975;50.956;6.962;2023-11-21T10:43:46;10.90;99.90
5899;DHT22;2975;50.956;6.962;2023-11-21T10:46:13;10.70;99.90
5899;DHT22;2975;50.956;6.962;2023-11-21T10:48:44;10.70;99.90
5899;DHT22;2975;50.956;6.962;2023-11-21T10:51:09;10.60;99.90
5899;DHT22;2975;50.956;6.962;2023-11-21T10:53:39;10.70;99.90
5899;DHT22;2975;50.956;6.962;2023-11-21T10:56:08;11.00;99.90
5899;DHT22;2975;50.956;6.962;2023-11-21T10:58:37;11.00;99.90
5899;DHT22;2975;50.956;6.962;2023-11-21T11:01:06;11.20;99.90
5899;DHT22;2975;50.956;6.962;2023-11-21T11:03:32;11.20;99.90
5899;DHT22;2975;50.956;6.962;2023-11-21T11:05:59;11.10;99.90
5899;DHT22;2975;50.956;6.962;2023-11-21T11:08:26;11.10;99.90
5899;DHT22;2975;50.956;6.962;2023-11-21T11:10:52;11.10;99.90
5899;DHT22;2975;50.956;6.962;2023-11-21T11:13:18;11.10;99.90
5899;DHT22;2975;50.956;6.962;2023-11-21T11:15:47;11.00;99.90
5899;DHT22;2975;50.956;6.962;2023-11-21T11:18:14;11.00;99.90
5899;DHT22;2975;50.956;6.962;2023-11-21T11:20:42;11.00;99.90
5899;DHT22;2975;50.956;6.962;2023-11-21T11:23:37;11.10;99.90
5899;DHT22;2975;50.956;6.962;2023-11-21T11:26:29;11.00;99.90
5899;DHT22;2975;50.956;6.962;2023-11-21T11:34:35;11.10;99.90
5899;DHT22;2975;50.956;6.962;2023-11-21T11:37:04;11.10;99.90
5899;DHT22;2975;50.956;6.962;2023-11-21T11:39:42;11.10;99.90
5899;DHT22;2975;50.956;6.962;2023-11-21T11:42:12;11.00;99.90
5899;DHT22;2975;50.956;6.962;2023-11-21T11:47:28;10.90;99.90
5899;DHT22;2975;50.956;6.962;2023-11-21T11:50:08;10.90;99.90
5899;DHT22;2975;50.956;6.962;2023-11-21T11:52:52;10.80;99.90
5899;DHT22;2975;50.956;6.962;2023-11-21T11:55:22;10.90;99.90
5899;DHT22;2975;50.956;6.962;2023-11-21T12:02:54;11.00;99.90
5899;DHT22;2975;50.956;6.962;2023-11-21T12:05:23;11.10;99.90
5899;DHT22;2975;50.956;6.962;2023-11-21T12:07:53;11.30;99.90
5899;DHT22;2975;50.956;6.962;2023-11-21T12:10:26;11.30;99.90
5899;DHT22;2975;50.956;6.962;2023-11-21T12:12:55;11.30;99.90
5899;DHT22;2975;50.956;6.962;2023-11-21T12:15:21;11.30;99.90
5899;DHT22;2975;50.956;6.962;2023-11-21T12:17:48;11.10;99.90
5899;DHT22;2975;50.956;6.962;2023-11-21T12:20:15;11.00;99.90
5899;DHT22;2975;50.956;6.962;2023-11-21T12:25:09;11.10;99.90
5899;DHT22;2975;50.956;6.962;2023-11-21T12:27:35;11.10;99.90
5899;DHT22;2975;50.956;6.962;2023-11-21T12:30:00;11.10;99.90
5899;DHT22;2975;50.956;6.962;2023-11-21T12:32:26;11.20;99.90
5899;DHT22;2975;50.956;6.962;2023-11-21T12:34:52;11.30;99.90
5899;DHT22;2975;50.956;6.962;2023-11-21T12:37:18;11.20;99.90
5899;DHT22;2975;50.956;6.962;2023-11-21T12:39:44;11.10;99.90
5899;DHT22;2975;50.956;6.962;2023-11-21T12:42:09;11.30;99.90
5899;DHT22;2975;50.956;6.962;2023-11-21T12:44:35;11.20;99.90
5899;DHT22;2975;50.956;6.962;2023-11-21T12:47:03;11.20;99.90
5899;DHT22;2975;50.956;6.962;2023-11-21T12:49:28;11.00;99.90
5899;DHT22;2975;50.956;6.962;2023-11-21T12:51:54;11.20;99.90
5899;DHT22;2975;50.956;6.962;2023-11-21T12:54:20;11.20;99.90
5899;DHT22;2975;50.956;6.962;2023-11-21T12:56:46;11.00;99.90
5899;DHT22;2975;50.956;6.962;2023-11-21T12:59:14;10.90;99.90
5899;DHT22;2975;50.956;6.962;2023-11-21T13:01:42;10.80;99.90
5899;DHT22;2975;50.956;6.962;2023-11-21T13:04:08;10.80;99.90
5899;DHT22;2975;50.956;6.962;2023-11-21T13:06:36;11.00;99.90
5899;DHT22;2975;50.956;6.962;2023-11-21T13:09:07;11.10;99.90
5899;DHT22;2975;50.956;6.962;2023-11-21T13:11:36;11.20;99.90
5899;DHT22;2975;50.956;6.962;2023-11-21T13:14:02;11.20;99.90
5899;DHT22;2975;50.956;6.962;2023-11-21T13:16:29;11.30;99.90
5899;DHT22;2975;50.956;6.962;2023-11-21T13:18:55;11.40;99.90
5899;DHT22;2975;50.956;6.962;2023-11-21T13:21:21;11.50;99.90
5899;DHT22;2975;50.956;6.962;2023-11-21T13:23:47;11.60;99.90
5899;DHT22;2975;50.956;6.962;2023-11-21T13:26:16;11.70;99.90
5899;DHT22;2975;50.956;6.962;2023-11-21T13:28:42;11.70;99.90
5899;DHT22;2975;50.956;6.962;2023-11-21T13:31:11;11.60;99.90
5899;DHT22;2975;50.956;6.962;2023-11-21T13:33:48;11.60;99.90
5899;DHT22;2975;50.956;6.962;2023-11-21T13:36:33;11.40;99.90
5899;DHT22;2975;50.956;6.962;2023-11-21T13:39:00;11.20;99.90
5899;DHT22;2975;50.956;6.962;2023-11-21T13:41:33;11.20;99.90
5899;DHT22;2975;50.956;6.962;2023-11-21T13:43:59;11.20;99.90
5899;DHT22;2975;50.956;6.962;2023-11-21T13:46:37;11.20;99.90
5899;DHT22;2975;50.956;6.962;2023-11-21T13:49:03;11.20;99.90
5899;DHT22;2975;50.956;6.962;2023-11-21T13:51:34;11.20;99.90
5899;DHT22;2975;50.956;6.962;2023-11-21T13:54:05;11.20;99.90
5899;DHT22;2975;50.956;6.962;2023-11-21T13:56:35;11.20;99.90
5899;DHT22;2975;50.956;6.962;2023-11-21T13:59:01;11.20;99.90
5899;DHT22;2975;50.956;6.962;2023-11-21T14:01:34;11.20;99.90
5899;DHT22;2975;50.956;6.962;2023-11-21T14:04:18;11.10;99.90
5899;DHT22;2975;50.956;6.962;2023-11-21T14:06:47;11.00;99.90
5899;DHT22;2975;50.956;6.962;2023-11-21T14:09:21;11.00;99.90
5899;DHT22;2975;50.956;6.962;2023-11-21T14:11:59;11.00;99.90
5899;DHT22;2975;50.956;6.962;2023-11-21T14:14:27;11.00;99.90
5899;DHT22;2975;50.956;6.962;2023-11-21T14:16:53;10.90;99.90
5899;DHT22;2975;50.956;6.962;2023-11-21T14:19:21;11.00;99.90
5899;DHT22;2975;50.956;6.962;2023-11-21T14:21:47;10.90;99.90
5899;DHT22;2975;50.956;6.962;2023-11-21T14:24:16;11.00;99.90
5899;DHT22;2975;50.956;6.962;2023-11-21T14:26:46;11.00;99.90
5899;DHT22;2975;50.956;6.962;2023-11-21T14:29:13;11.00;99.90
5899;DHT22;2975;50.956;6.962;2023-11-21T14:31:41;11.00;99.90
5899;DHT22;2975;50.956;6.962;2023-11-21T14:34:09;10.90;99.90
5899;DHT22;2975;50.956;6.962;2023-11-21T14:36:36;11.00;99.90
5899;DHT22;2975;50.956;6.962;2023-11-21T14:39:09;10.90;99.90
5899;DHT22;2975;50.956;6.962;2023-11-21T14:41:45;10.90;99.90
5899;DHT22;2975;50.956;6.962;2023-11-21T14:44:11;11.00;99.90
5899;DHT22;2975;50.956;6.962;2023-11-21T14:46:38;11.00;99.90
5899;DHT22;2975;50.956;6.962;2023-11-21T14:49:05;10.90;99.90
5899;DHT22;2975;50.956;6.962;2023-11-21T14:51:51;10.90;99.90
5899;DHT22;2975;50.956;6.962;2023-11-21T14:54:30;10.80;99.90
5899;DHT22;2975;50.956;6.962;2023-11-21T14:57:16;10.80;99.90
5899;DHT22;2975;50.956;6.962;2023-11-21T14:59:47;10.80;99.90
5899;DHT22;2975;50.956;6.962;2023-11-21T15:02:19;10.80;99.90
5899;DHT22;2975;50.956;6.962;2023-11-21T15:05:08;10.70;99.90
5899;DHT22;2975;50.956;6.962;2023-11-21T15:07:40;10.70;99.90
5899;DHT22;2975;50.956;6.962;2023-11-21T15:10:06;10.80;99.90
5899;DHT22;2975;50.956;6.962;2023-11-21T15:12:36;10.80;99.90
5899;DHT22;2975;50.956;6.962;2023-11-21T15:15:04;10.70;99.90
5899;DHT22;2975;50.956;6.962;2023-11-21T15:17:33;10.70;99.90
5899;DHT22;2975;50.956;6.962;2023-11-21T15:19:58;10.80;99.90
5899;DHT22;2975;50.956;6.962;2023-11-21T15:22:25;10.80;99.90
5899;DHT22;2975;50.956;6.962;2023-11-21T15:24:52;10.80;99.90
5899;DHT22;2975;50.956;6.962;2023-11-21T15:27:19;10.70;99.90
5899;DHT22;2975;50.956;6.962;2023-11-21T15:29:45;10.60;99.90
5899;DHT22;2975;50.956;6.962;2023-11-21T15:32:11;10.50;99.90
5899;DHT22;2975;50.956;6.962;2023-11-21T15:34:38;10.60;99.90
5899;DHT22;2975;50.956;6.962;2023-11-21T15:37:05;10.50;99.90
5899;DHT22;2975;50.956;6.962;2023-11-21T15:39:33;10.50;99.90
5899;DHT22;2975;50.956;6.962;2023-11-21T15:41:59;10.40;99.90
5899;DHT22;2975;50.956;6.962;2023-11-21T15:44:25;10.40;99.90
5899;DHT22;2975;50.956;6.962;2023-11-21T15:46:55;10.30;99.90
5899;DHT22;2975;50.956;6.962;2023-11-21T15:49:21;10.30;99.90
5899;DHT22;2975;50.956;6.962;2023-11-21T15:51:48;10.20;99.90
5899;DHT22;2975;50.956;6.962;2023-11-21T15:54:23;10.20;99.90
5899;DHT22;2975;50.956;6.962;2023-11-21T15:56:50;10.20;99.90
5899;DHT22;2975;50.956;6.962;2023-11-21T15:59:18;10.20;99.90
5899;DHT22;2975;50.956;6.962;2023-11-21T16:01:44;10.20;99.90
5899;DHT22;2975;50.956;6.962;2023-11-21T16:04:12;10.20;99.90
5899;DHT22;2975;50.956;6.962;2023-11-21T16:06:45;10.20;99.90
5899;DHT22;2975;50.956;6.962;2023-11-21T16:09:11;10.20;99.90
5899;DHT22;2975;50.956;6.962;2023-11-21T16:11:54;10.30;99.90
5899;DHT22;2975;50.956;6.962;2023-11-21T16:14:25;10.30;99.90
5899;DHT22;2975;50.956;6.962;2023-11-21T16:16:55;10.20;99.90
5899;DHT22;2975;50.956;6.962;2023-11-21T16:19:21;10.20;99.90
5899;DHT22;2975;50.956;6.962;2023-11-21T16:21:48;10.20;99.90
5899;DHT22;2975;50.956;6.962;2023-11-21T16:24:14;10.20;99.90
5899;DHT22;2975;50.956;6.962;2023-11-21T16:26:43;10.20;99.90
5899;DHT22;2975;50.956;6.962;2023-11-21T16:29:09;10.20;99.90